sensor_id;sensor_type;location;lat;lon;timestamp;temperature;humidity
2647;DHT22;1333;50.958;6.770;2024-01-06T00:01:36;7.40;99.90
2647;DHT22;1333;50.958;6.770;2024-01-06T00:04:02;7.40;99.90
2647;DHT22;1333;50.958;6.770;2024-01-06T00:06:27;7.40;99.90
2647;DHT22;1333;50.958;6.770;2024-01-06T00:08:53;7.40;99.90
2647;DHT22;1333;50.958;6.770;2024-01-06T00:11:22;7.40;99.90
2647;DHT22;1333;50.958;6.770;2024-01-06T00:13:48;7.40;99.90
2647;DHT22;1333;50.958;6.770;2024-01-06T00:16:16;7.50;99.90
2647;DHT22;1333;50.958;6.770;2024-01-06T00:18:41;7.50;99.90
2647;DHT22;1333;50.958;6.770;2024-01-06T00:21:08;7.40;99.90
2647;DHT22;1333;50.958;6.770;2024-01-06T00:23:33;7.40;99.90
2647;DHT22;1333;50.958;6.770;2024-01-06T00:25:59;7.40;99.90
2647;DHT22;1333;50.958;6.770;2024-01-06T00:28:24;7.40;99.90
2647;DHT22;1333;50.958;6.770;2024-01-06T00:30:50;7.40;99.90
2647;DHT22;1333;50.958;6.770;2024-01-06T00:33:15;7.30;99.90
2647;DHT22;1333;50.958;6.770;2024-01-06T00:35:41;7.30;99.90
2647;DHT22;1333;50.958;6.770;2024-01-06T00:38:06;7.30;99.90
2647;DHT22;1333;50.958;6.770;2024-01-06T00:40:32;7.30;99.90
2647;DHT22;1333;50.958;6.770;2024-01-06T00:42:58;7.30;99.90
2647;DHT22;1333;50.958;6.770;2024-01-06T00:45:24;7.30;99.90
2647;DHT22;1333;50.958;6.770;2024-01-06T00:47:49;7.20;99.90
2647;DHT22;1333;50.958;6.770;2024-01-06T00:50:15;7.20;99.90
2647;DHT22;1333;50.958;6.770;2024-01-06T00:52:41;7.20;99.90
2647;DHT22;1333;50.958;6.770;2024-01-06T00:55:07;7.20;99.90
2647;DHT22;1333;50.958;6.770;2024-01-06T00:57:33;7.20;99.90
2647;DHT22;1333;50.958;6.770;2024-01-06T00:59:58;7.30;99.90
2647;DHT22;1333;50.958;6.770;2024-01-06T01:02:24;7.30;99.90
2647;DHT22;1333;50.958;6.770;2024-01-06T01:04:49;7.30;99.90
2647;DHT22;1333;50.958;6.770;2024-01-06T01:07:15;7.40;99.90
2647;DHT22;1333;50.958;6.770;2024-01-06T01:09:41;7.40;99.90
2647;DHT22;1333;50.958;6.770;2024-01-06T01:12:06;7.40;99.90
2647;DHT22;1333;50.958;6.770;2024-01-06T01:14:32;7.40;99.90
2647;DHT22;1333;50.958;6.770;2024-01-06T01:16:57;7.40;99.90
2647;DHT22;1333;50.958;6.770;2024-01-06T01:19:23;7.30;99.90
2647;DHT22;1333;50.958;6.770;2024-01-06T01:21:48;7.40;99.90
2647;DHT22;1333;50.958;6.770;2024-01-06T01:24:14;7.50;99.90
2647;DHT22;1333;50.958;6.770;2024-01-06T01:26:39;7.40;99.90
2647;DHT22;1333;50.958;6.770;2024-01-06T01:29:05;7.40;99.90
2647;DHT22;1333;50.958;6.770;2024-01-06T01:31:30;7.50;99.90
2647;DHT22;1333;50.958;6.770;2024-01-06T01:33:56;7.60;99.90
2647;DHT22;1333;50.958;6.770;2024-01-06T01:36:21;7.50;99.90
2647;DHT22;1333;50.958;6.770;2024-01-06T01:38:47;7.50;99.90
2647;DHT22;1333;50.958;6.770;2024-01-06T01:41:12;7.50;99.90
2647;DHT22;1333;50.958;6.770;2024-01-06T01:43:38;7.50;99.90
2647;DHT22;1333;50.958;6.770;2024-01-06T01:46:04;7.60;99.90
2647;DHT22;1333;50.958;6.770;2024-01-06T01:48:30;7.60;99.90
2647;DHT22;1333;50.958;6.770;2024-01-06T01:50:56;7.70;99.90
2647;DHT22;1333;50.958;6.770;2024-01-06T01:53:23;7.80;99.90
2647;DHT22;1333;50.958;6.770;2024-01-06T01:55:50;7.80;99.90
2647;DHT22;1333;50.958;6.770;2024-01-06T01:58:16;7.90;99.90
2647;DHT22;1333;50.958;6.770;2024-01-06T02:00:42;7.90;99.90
2647;DHT22;1333;50.958;6.770;2024-01-06T02:03:09;7.90;99.90
2647;DHT22;1333;50.958;6.770;2024-01-06T02:05:36;7.90;99.90
2647;DHT22;1333;50.958;6.770;2024-01-06T02:08:01;7.90;99.90
2647;DHT22;1333;50.958;6.770;2024-01-06T02:10:27;7.90;99.90
2647;DHT22;1333;50.958;6.770;2024-01-06T02:12:54;7.90;99.90
2647;DHT22;1333;50.958;6.770;2024-01-06T02:15:20;7.90;99.90
2647;DHT22;1333;50.958;6.770;2024-01-06T02:17:45;7.90;99.90
2647;DHT22;1333;50.958;6.770;2024-01-06T02:20:11;7.90;99.90
2647;DHT22;1333;50.958;6.770;2024-01-06T02:22:38;7.90;99.90
2647;DHT22;1333;50.958;6.770;2024-01-06T02:25:05;7.90;99.90
2647;DHT22;1333;50.958;6.770;2024-01-06T02:27:38;8.00;99.90
2647;DHT22;1333;50.958;6.770;2024-01-06T02:30:03;8.00;99.90
2647;DHT22;1333;50.958;6.770;2024-01-06T02:32:29;8.10;99.90
2647;DHT22;1333;50.958;6.770;2024-01-06T02:34:55;8.20;99.90
2647;DHT22;1333;50.958;6.770;2024-01-06T02:37:20;8.20;99.90
2647;DHT22;1333;50.958;6.770;2024-01-06T02:39:46;8.30;99.90
2647;DHT22;1333;50.958;6.770;2024-01-06T02:42:11;8.30;99.90
2647;DHT22;1333;50.958;6.770;2024-01-06T02:44:37;8.30;99.90
2647;DHT22;1333;50.958;6.770;2024-01-06T02:47:02;8.30;99.90
2647;DHT22;1333;50.958;6.770;2024-01-06T02:49:28;8.40;99.90
2647;DHT22;1333;50.958;6.770;2024-01-06T02:51:57;8.40;99.90
2647;DHT22;1333;50.958;6.770;2024-01-06T02:54:23;8.40;99.90
2647;DHT22;1333;50.958;6.770;2024-01-06T02:56:49;8.30;99.90
2647;DHT22;1333;50.958;6.770;2024-01-06T02:59:14;8.30;99.90
2647;DHT22;1333;50.958;6.770;2024-01-06T03:01:40;8.30;99.90
2647;DHT22;1333;50.958;6.770;2024-01-06T03:04:05;8.30;99.90
2647;DHT22;1333;50.958;6.770;2024-01-06T03:06:31;8.30;99.90
2647;DHT22;1333;50.958;6.770;2024-01-06T03:08:56;8.30;99.90
2647;DHT22;1333;50.958;6.770;2024-01-06T03:11:22;8.40;99.90
2647;DHT22;1333;50.958;6.770;2024-01-06T03:13:47;8.40;99.90
2647;DHT22;1333;50.958;6.770;2024-01-06T03:16:13;8.40;99.90
2647;DHT22;1333;50.958;6.770;2024-01-06T03:18:38;8.40;99.90
2647;DHT22;1333;50.958;6.770;2024-01-06T03:21:04;8.40;99.90
2647;DHT22;1333;50.958;6.770;2024-01-06T03:23:29;8.40;99.90
2647;DHT22;1333;50.958;6.770;2024-01-06T03:25:55;8.40;99.90
2647;DHT22;1333;50.958;6.770;2024-01-06T03:28:20;8.40;99.90
2647;DHT22;1333;50.958;6.770;2024-01-06T03:30:46;8.40;99.90
2647;DHT22;1333;50.958;6.770;2024-01-06T03:33:12;8.50;99.90
2647;DHT22;1333;50.958;6.770;2024-01-06T03:35:37;8.40;99.90
2647;DHT22;1333;50.958;6.770;2024-01-06T03:38:03;8.30;99.90
2647;DHT22;1333;50.958;6.770;2024-01-06T03:40:29;8.40;99.90
2647;DHT22;1333;50.958;6.770;2024-01-06T03:42:54;8.40;99.90
2647;DHT22;1333;50.958;6.770;2024-01-06T03:45:20;8.40;99.90
2647;DHT22;1333;50.958;6.770;2024-01-06T03:47:46;8.40;99.90
2647;DHT22;1333;50.958;6.770;2024-01-06T03:50:12;8.40;99.90
2647;DHT22;1333;50.958;6.770;2024-01-06T03:52:38;8.40;99.90
2647;DHT22;1333;50.958;6.770;2024-01-06T03:55:05;8.40;99.90
2647;DHT22;1333;50.958;6.770;2024-01-06T03:57:30;8.40;99.90
2647;DHT22;1333;50.958;6.770;2024-01-06T03:59:56;8.40;99.90
2647;DHT22;1333;50.958;6.770;2024-01-06T04:02:21;8.40;99.90
2647;DHT22;1333;50.958;6.770;2024-01-06T04:04:47;8.40;99.90
2647;DHT22;1333;50.958;6.770;2024-01-06T04:07:12;8.40;99.90
2647;DHT22;1333;50.958;6.770;2024-01-06T04:09:41;8.40;99.90
2647;DHT22;1333;50.958;6.770;2024-01-06T04:12:06;8.40;99.90
2647;DHT22;1333;50.958;6.770;2024-01-06T04:14:32;8.40;99.90
2647;DHT22;1333;50.958;6.770;2024-01-06T04:16:58;8.40;99.90
2647;DHT22;1333;50.958;6.770;2024-01-06T04:19:24;8.40;99.90
2647;DHT22;1333;50.958;6.770;2024-01-06T04:21:49;8.40;99.90
2647;DHT22;1333;50.958;6.770;2024-01-06T04:24:15;8.40;99.90
2647;DHT22;1333;50.958;6.770;2024-01-06T04:26:40;8.40;99.90
2647;DHT22;1333;50.958;6.770;2024-01-06T04:29:06;8.40;99.90
2647;DHT22;1333;50.958;6.770;2024-01-06T04:31:31;8.40;99.90
2647;DHT22;1333;50.958;6.770;2024-01-06T04:33:57;8.40;99.90
2647;DHT22;1333;50.958;6.770;2024-01-06T04:36:22;8.50;99.90
2647;DHT22;1333;50.958;6.770;2024-01-06T04:38:48;8.50;99.90
2647;DHT22;1333;50.958;6.770;2024-01-06T04:41:14;8.40;99.90
2647;DHT22;1333;50.958;6.770;2024-01-06T04:43:39;8.50;99.90
2647;DHT22;1333;50.958;6.770;2024-01-06T04:46:05;8.50;99.90
2647;DHT22;1333;50.958;6.770;2024-01-06T04:48:33;8.40;99.90
2647;DHT22;1333;50.958;6.770;2024-01-06T04:51:02;8.50;99.90
2647;DHT22;1333;50.958;6.770;2024-01-06T04:53:28;8.50;99.90
2647;DHT22;1333;50.958;6.770;2024-01-06T04:55:54;8.40;99.90
2647;DHT22;1333;50.958;6.770;2024-01-06T04:58:23;8.40;99.90
2647;DHT22;1333;50.958;6.770;2024-01-06T05:00:50;8.40;99.90
2647;DHT22;1333;50.958;6.770;2024-01-06T05:03:17;8.50;99.90
2647;DHT22;1333;50.958;6.770;2024-01-06T05:05:43;8.50;99.90
2647;DHT22;1333;50.958;6.770;2024-01-06T05:08:10;8.40;99.90
2647;DHT22;1333;50.958;6.770;2024-01-06T05:10:36;8.30;99.90
2647;DHT22;1333;50.958;6.770;2024-01-06T05:13:01;8.30;99.90
2647;DHT22;1333;50.958;6.770;2024-01-06T05:15:34;8.20;99.90
2647;DHT22;1333;50.958;6.770;2024-01-06T05:19:09;8.10;99.90
2647;DHT22;1333;50.958;6.770;2024-01-06T05:22:32;8.00;99.90
2647;DHT22;1333;50.958;6.770;2024-01-06T05:26:06;7.90;99.90
2647;DHT22;1333;50.958;6.770;2024-01-06T05:32:24;7.60;99.90
2647;DHT22;1333;50.958;6.770;2024-01-06T05:34:50;7.50;99.90
2647;DHT22;1333;50.958;6.770;2024-01-06T05:37:16;7.50;99.90
2647;DHT22;1333;50.958;6.770;2024-01-06T05:39:41;7.40;99.90
2647;DHT22;1333;50.958;6.770;2024-01-06T05:42:08;7.40;99.90
2647;DHT22;1333;50.958;6.770;2024-01-06T05:44:37;7.30;99.90
2647;DHT22;1333;50.958;6.770;2024-01-06T05:47:03;7.30;99.90
2647;DHT22;1333;50.958;6.770;2024-01-06T05:49:29;7.20;99.90
2647;DHT22;1333;50.958;6.770;2024-01-06T05:51:54;7.20;99.90
2647;DHT22;1333;50.958;6.770;2024-01-06T05:54:20;7.10;99.90
2647;DHT22;1333;50.958;6.770;2024-01-06T05:56:45;7.00;99.90
2647;DHT22;1333;50.958;6.770;2024-01-06T05:59:11;7.00;99.90
2647;DHT22;1333;50.958;6.770;2024-01-06T06:01:36;7.00;99.90
2647;DHT22;1333;50.958;6.770;2024-01-06T06:04:02;6.90;99.90
2647;DHT22;1333;50.958;6.770;2024-01-06T06:06:27;6.90;99.90
2647;DHT22;1333;50.958;6.770;2024-01-06T06:08:53;6.90;99.90
2647;DHT22;1333;50.958;6.770;2024-01-06T06:11:18;6.90;99.90
2647;DHT22;1333;50.958;6.770;2024-01-06T06:13:44;6.80;99.90
2647;DHT22;1333;50.958;6.770;2024-01-06T06:16:10;6.80;99.90
2647;DHT22;1333;50.958;6.770;2024-01-06T06:18:38;6.80;99.90
2647;DHT22;1333;50.958;6.770;2024-01-06T06:21:03;6.80;99.90
2647;DHT22;1333;50.958;6.770;2024-01-06T06:23:32;6.80;99.90
2647;DHT22;1333;50.958;6.770;2024-01-06T06:25:58;6.80;99.90
2647;DHT22;1333;50.958;6.770;2024-01-06T06:28:25;6.80;99.90
2647;DHT22;1333;50.958;6.770;2024-01-06T06:30:50;6.80;99.90
2647;DHT22;1333;50.958;6.770;2024-01-06T06:33:16;6.80;99.90
2647;DHT22;1333;50.958;6.770;2024-01-06T06:35:42;6.80;99.90
2647;DHT22;1333;50.958;6.770;2024-01-06T06:38:08;6.80;99.90
2647;DHT22;1333;50.958;6.770;2024-01-06T06:40:33;6.80;99.90
2647;DHT22;1333;50.958;6.770;2024-01-06T06:42:59;6.80;99.90
2647;DHT22;1333;50.958;6.770;2024-01-06T06:45:24;6.80;99.90
2647;DHT22;1333;50.958;6.770;2024-01-06T06:47:50;6.80;99.90
2647;DHT22;1333;50.958;6.770;2024-01-06T06:50:16;6.80;99.90
2647;DHT22;1333;50.958;6.770;2024-01-06T06:52:42;6.80;99.90
2647;DHT22;1333;50.958;6.770;2024-01-06T06:55:08;6.90;99.90
2647;DHT22;1333;50.958;6.770;2024-01-06T06:57:33;6.80;99.90
2647;DHT22;1333;50.958;6.770;2024-01-06T06:59:59;6.80;99.90
2647;DHT22;1333;50.958;6.770;2024-01-06T07:02:37;6.80;99.90
2647;DHT22;1333;50.958;6.770;2024-01-06T07:05:16;6.80;99.90
2647;DHT22;1333;50.958;6.770;2024-01-06T07:08:05;6.90;99.90
2647;DHT22;1333;50.958;6.770;2024-01-06T07:10:33;6.80;99.90
2647;DHT22;1333;50.958;6.770;2024-01-06T07:12:59;6.80;99.90
2647;DHT22;1333;50.958;6.770;2024-01-06T07:15:45;6.80;99.90
2647;DHT22;1333;50.958;6.770;2024-01-06T07:18:13;6.80;99.90
2647;DHT22;1333;50.958;6.770;2024-01-06T07:21:00;6.80;99.90
2647;DHT22;1333;50.958;6.770;2024-01-06T07:23:32;6.80;99.90
2647;DHT22;1333;50.958;6.770;2024-01-06T07:26:30;6.80;99.90
2647;DHT22;1333;50.958;6.770;2024-01-06T07:29:19;6.80;99.90
2647;DHT22;1333;50.958;6.770;2024-01-06T07:32:14;6.70;99.90
2647;DHT22;1333;50.958;6.770;2024-01-06T07:34:40;6.70;99.90
2647;DHT22;1333;50.958;6.770;2024-01-06T07:37:06;6.70;99.90
2647;DHT22;1333;50.958;6.770;2024-01-06T07:39:31;6.70;99.90
2647;DHT22;1333;50.958;6.770;2024-01-06T07:41:57;6.70;99.90
2647;DHT22;1333;50.958;6.770;2024-01-06T07:44:22;6.70;99.90
2647;DHT22;1333;50.958;6.770;2024-01-06T07:46:50;6.80;99.90
2647;DHT22;1333;50.958;6.770;2024-01-06T07:49:16;6.80;99.90
2647;DHT22;1333;50.958;6.770;2024-01-06T07:51:49;6.70;99.90
2647;DHT22;1333;50.958;6.770;2024-01-06T07:54:58;6.70;99.90
2647;DHT22;1333;50.958;6.770;2024-01-06T07:57:33;6.70;99.90
2647;DHT22;1333;50.958;6.770;2024-01-06T08:00:55;6.80;99.90
2647;DHT22;1333;50.958;6.770;2024-01-06T08:03:52;6.70;99.90
2647;DHT22;1333;50.958;6.770;2024-01-06T08:06:19;6.70;99.90
2647;DHT22;1333;50.958;6.770;2024-01-06T08:08:44;6.70;99.90
2647;DHT22;1333;50.958;6.770;2024-01-06T08:11:11;6.70;99.90
2647;DHT22;1333;50.958;6.770;2024-01-06T08:13:37;6.70;99.90
2647;DHT22;1333;50.958;6.770;2024-01-06T08:16:03;6.70;99.90
2647;DHT22;1333;50.958;6.770;2024-01-06T08:18:28;6.70;99.90
2647;DHT22;1333;50.958;6.770;2024-01-06T08:20:54;6.70;99.90
2647;DHT22;1333;50.958;6.770;2024-01-06T08:23:19;6.70;99.90
2647;DHT22;1333;50.958;6.770;2024-01-06T08:25:46;6.70;99.90
2647;DHT22;1333;50.958;6.770;2024-01-06T08:28:11;6.70;99.90
2647;DHT22;1333;50.958;6.770;2024-01-06T08:30:37;6.70;99.90
2647;DHT22;1333;50.958;6.770;2024-01-06T08:33:03;6.80;99.90
2647;DHT22;1333;50.958;6.770;2024-01-06T08:35:29;6.80;99.90
2647;DHT22;1333;50.958;6.770;2024-01-06T08:37:55;6.90;99.90
2647;DHT22;1333;50.958;6.770;2024-01-06T08:40:21;6.90;99.90
2647;DHT22;1333;50.958;6.770;2024-01-06T08:42:46;7.00;99.90
2647;DHT22;1333;50.958;6.770;2024-01-06T08:45:12;7.00;99.90
2647;DHT22;1333;50.958;6.770;2024-01-06T08:47:37;7.00;99.90
2647;DHT22;1333;50.958;6.770;2024-01-06T08:50:03;7.10;99.90
2647;DHT22;1333;50.958;6.770;2024-01-06T08:52:30;7.20;99.90
2647;DHT22;1333;50.958;6.770;2024-01-06T08:54:56;7.20;99.90
2647;DHT22;1333;50.958;6.770;2024-01-06T08:57:21;7.30;99.90
2647;DHT22;1333;50.958;6.770;2024-01-06T08:59:47;7.40;99.90
2647;DHT22;1333;50.958;6.770;2024-01-06T09:02:12;7.40;99.90
2647;DHT22;1333;50.958;6.770;2024-01-06T09:04:38;7.50;99.90
2647;DHT22;1333;50.958;6.770;2024-01-06T09:07:03;7.50;99.90
2647;DHT22;1333;50.958;6.770;2024-01-06T09:09:29;7.50;99.90
2647;DHT22;1333;50.958;6.770;2024-01-06T09:11:55;7.50;99.90
2647;DHT22;1333;50.958;6.770;2024-01-06T09:14:20;7.50;99.90
2647;DHT22;1333;50.958;6.770;2024-01-06T09:16:46;7.50;99.90
2647;DHT22;1333;50.958;6.770;2024-01-06T09:19:11;7.40;99.90
2647;DHT22;1333;50.958;6.770;2024-01-06T09:21:37;7.40;99.90
2647;DHT22;1333;50.958;6.770;2024-01-06T09:24:02;7.40;99.90
2647;DHT22;1333;50.958;6.770;2024-01-06T09:26:32;7.30;99.90
2647;DHT22;1333;50.958;6.770;2024-01-06T09:28:58;7.30;99.90
2647;DHT22;1333;50.958;6.770;2024-01-06T09:31:23;7.30;99.90
2647;DHT22;1333;50.958;6.770;2024-01-06T09:33:49;7.40;99.90
2647;DHT22;1333;50.958;6.770;2024-01-06T09:36:15;7.30;99.90
2647;DHT22;1333;50.958;6.770;2024-01-06T09:38:41;7.40;99.90
2647;DHT22;1333;50.958;6.770;2024-01-06T09:41:06;7.40;99.90
2647;DHT22;1333;50.958;6.770;2024-01-06T09:43:32;7.40;99.90
2647;DHT22;1333;50.958;6.770;2024-01-06T09:46:11;7.40;99.90
2647;DHT22;1333;50.958;6.770;2024-01-06T09:48:40;7.50;99.90
2647;DHT22;1333;50.958;6.770;2024-01-06T09:51:12;7.40;99.90
2647;DHT22;1333;50.958;6.770;2024-01-06T09:53:43;7.50;99.90
2647;DHT22;1333;50.958;6.770;2024-01-06T09:56:11;7.50;99.90
2647;DHT22;1333;50.958;6.770;2024-01-06T09:58:38;7.60;99.90
2647;DHT22;1333;50.958;6.770;2024-01-06T10:01:05;7.60;99.90
2647;DHT22;1333;50.958;6.770;2024-01-06T10:03:31;7.70;99.90
2647;DHT22;1333;50.958;6.770;2024-01-06T10:05:59;7.70;99.90
2647;DHT22;1333;50.958;6.770;2024-01-06T10:08:29;7.70;99.90
2647;DHT22;1333;50.958;6.770;2024-01-06T10:10:54;7.70;99.90
2647;DHT22;1333;50.958;6.770;2024-01-06T10:13:20;7.80;99.90
2647;DHT22;1333;50.958;6.770;2024-01-06T10:15:45;7.80;99.90
2647;DHT22;1333;50.958;6.770;2024-01-06T10:18:12;7.80;99.90
2647;DHT22;1333;50.958;6.770;2024-01-06T10:20:38;7.80;99.90
2647;DHT22;1333;50.958;6.770;2024-01-06T10:23:07;7.80;99.90
2647;DHT22;1333;50.958;6.770;2024-01-06T10:25:32;7.80;99.90
2647;DHT22;1333;50.958;6.770;2024-01-06T10:28:00;7.80;99.90
2647;DHT22;1333;50.958;6.770;2024-01-06T10:30:29;7.80;99.90
2647;DHT22;1333;50.958;6.770;2024-01-06T10:32:54;7.80;99.90
2647;DHT22;1333;50.958;6.770;2024-01-06T10:35:20;7.70;99.90
2647;DHT22;1333;50.958;6.770;2024-01-06T10:37:47;7.70;99.90
2647;DHT22;1333;50.958;6.770;2024-01-06T10:40:14;7.70;99.90
2647;DHT22;1333;50.958;6.770;2024-01-06T10:42:44;7.70;99.90
2647;DHT22;1333;50.958;6.770;2024-01-06T10:45:12;7.60;99.90
2647;DHT22;1333;50.958;6.770;2024-01-06T10:47:40;7.60;99.90
2647;DHT22;1333;50.958;6.770;2024-01-06T10:50:07;7.60;99.90
2647;DHT22;1333;50.958;6.770;2024-01-06T10:52:33;7.60;99.90
2647;DHT22;1333;50.958;6.770;2024-01-06T10:55:00;7.60;99.90
2647;DHT22;1333;50.958;6.770;2024-01-06T10:57:27;7.60;99.90
2647;DHT22;1333;50.958;6.770;2024-01-06T10:59:53;7.60;99.90
2647;DHT22;1333;50.958;6.770;2024-01-06T11:02:19;7.60;99.90
2647;DHT22;1333;50.958;6.770;2024-01-06T11:04:46;7.60;99.90
2647;DHT22;1333;50.958;6.770;2024-01-06T11:07:13;7.60;99.90
2647;DHT22;1333;50.958;6.770;2024-01-06T11:09:47;7.50;99.90
2647;DHT22;1333;50.958;6.770;2024-01-06T11:12:16;7.50;99.90
2647;DHT22;1333;50.958;6.770;2024-01-06T11:14:42;7.50;99.90
2647;DHT22;1333;50.958;6.770;2024-01-06T11:17:07;7.50;99.90
2647;DHT22;1333;50.958;6.770;2024-01-06T11:22:28;7.40;99.90
2647;DHT22;1333;50.958;6.770;2024-01-06T11:25:03;7.40;99.90
2647;DHT22;1333;50.958;6.770;2024-01-06T11:27:31;7.40;99.90
2647;DHT22;1333;50.958;6.770;2024-01-06T11:29:58;7.30;99.90
2647;DHT22;1333;50.958;6.770;2024-01-06T11:32:30;7.30;99.90
2647;DHT22;1333;50.958;6.770;2024-01-06T11:35:06;7.30;99.90
2647;DHT22;1333;50.958;6.770;2024-01-06T11:42:52;7.10;99.90
2647;DHT22;1333;50.958;6.770;2024-01-06T11:45:21;7.00;99.90
2647;DHT22;1333;50.958;6.770;2024-01-06T11:47:48;7.00;99.90
2647;DHT22;1333;50.958;6.770;2024-01-06T11:50:14;7.00;99.90
2647;DHT22;1333;50.958;6.770;2024-01-06T11:52:40;7.10;99.90
2647;DHT22;1333;50.958;6.770;2024-01-06T11:55:07;7.10;99.90
2647;DHT22;1333;50.958;6.770;2024-01-06T11:57:34;7.10;99.90
2647;DHT22;1333;50.958;6.770;2024-01-06T12:00:00;7.10;99.90
2647;DHT22;1333;50.958;6.770;2024-01-06T12:02:25;7.10;99.90
2647;DHT22;1333;50.958;6.770;2024-01-06T12:04:52;7.10;99.90
2647;DHT22;1333;50.958;6.770;2024-01-06T12:07:19;7.10;99.90
2647;DHT22;1333;50.958;6.770;2024-01-06T12:09:46;7.10;99.90
2647;DHT22;1333;50.958;6.770;2024-01-06T12:12:15;7.10;99.90
2647;DHT22;1333;50.958;6.770;2024-01-06T12:14:41;7.00;99.90
2647;DHT22;1333;50.958;6.770;2024-01-06T12:17:11;7.00;99.90
2647;DHT22;1333;50.958;6.770;2024-01-06T12:19:39;7.00;99.90
2647;DHT22;1333;50.958;6.770;2024-01-06T12:22:07;6.90;99.90
2647;DHT22;1333;50.958;6.770;2024-01-06T12:24:32;6.80;99.90
2647;DHT22;1333;50.958;6.770;2024-01-06T12:26:58;6.80;99.90
2647;DHT22;1333;50.958;6.770;2024-01-06T12:29:27;6.60;99.90
2647;DHT22;1333;50.958;6.770;2024-01-06T12:31:54;6.60;99.90
2647;DHT22;1333;50.958;6.770;2024-01-06T12:34:21;6.60;99.90
2647;DHT22;1333;50.958;6.770;2024-01-06T12:36:47;6.60;99.90
2647;DHT22;1333;50.958;6.770;2024-01-06T12:39:13;6.60;99.90
2647;DHT22;1333;50.958;6.770;2024-01-06T12:41:42;6.50;99.90
2647;DHT22;1333;50.958;6.770;2024-01-06T12:44:08;6.50;99.90
2647;DHT22;1333;50.958;6.770;2024-01-06T12:46:34;6.50;99.90
2647;DHT22;1333;50.958;6.770;2024-01-06T12:49:00;6.40;99.90
2647;DHT22;1333;50.958;6.770;2024-01-06T12:51:26;6.40;99.90
2647;DHT22;1333;50.958;6.770;2024-01-06T12:53:51;6.30;99.90
2647;DHT22;1333;50.958;6.770;2024-01-06T12:56:17;6.40;99.90
2647;DHT22;1333;50.958;6.770;2024-01-06T12:58:43;6.30;99.90
2647;DHT22;1333;50.958;6.770;2024-01-06T13:01:09;6.30;99.90
2647;DHT22;1333;50.958;6.770;2024-01-06T13:03:35;6.30;99.90
2647;DHT22;1333;50.958;6.770;2024-01-06T13:06:00;6.30;99.90
2647;DHT22;1333;50.958;6.770;2024-01-06T13:08:27;6.20;99.90
2647;DHT22;1333;50.958;6.770;2024-01-06T13:10:53;6.20;99.90
2647;DHT22;1333;50.958;6.770;2024-01-06T13:13:19;6.20;99.90
2647;DHT22;1333;50.958;6.770;2024-01-06T13:15:45;6.20;99.90
2647;DHT22;1333;50.958;6.770;2024-01-06T13:18:12;6.10;99.90
2647;DHT22;1333;50.958;6.770;2024-01-06T13:20:38;6.10;99.90
2647;DHT22;1333;50.958;6.770;2024-01-06T13:23:07;6.10;99.90
2647;DHT22;1333;50.958;6.770;2024-01-06T13:25:34;6.10;99.90
2647;DHT22;1333;50.958;6.770;2024-01-06T13:28:00;6.10;99.90
2647;DHT22;1333;50.958;6.770;2024-01-06T13:30:25;6.10;99.90
2647;DHT22;1333;50.958;6.770;2024-01-06T13:32:51;6.10;99.90
2647;DHT22;1333;50.958;6.770;2024-01-06T13:35:19;6.00;99.90
2647;DHT22;1333;50.958;6.770;2024-01-06T13:37:45;5.90;99.90
2647;DHT22;1333;50.958;6.770;2024-01-06T13:40:13;5.90;99.90
2647;DHT22;1333;50.958;6.770;2024-01-06T13:42:39;5.80;99.90
2647;DHT22;1333;50.958;6.770;2024-01-06T13:45:05;5.80;99.90
2647;DHT22;1333;50.958;6.770;2024-01-06T13:47:32;5.80;99.90
2647;DHT22;1333;50.958;6.770;2024-01-06T13:49:58;5.80;99.90
2647;DHT22;1333;50.958;6.770;2024-01-06T13:52:24;5.80;99.90
2647;DHT22;1333;50.958;6.770;2024-01-06T13:54:50;5.70;99.90
2647;DHT22;1333;50.958;6.770;2024-01-06T13:57:15;5.70;99.90
2647;DHT22;1333;50.958;6.770;2024-01-06T13:59:41;5.60;99.90
2647;DHT22;1333;50.958;6.770;2024-01-06T14:02:08;5.60;99.90
2647;DHT22;1333;50.958;6.770;2024-01-06T14:04:34;5.60;99.90
2647;DHT22;1333;50.958;6.770;2024-01-06T14:07:00;5.70;99.90
2647;DHT22;1333;50.958;6.770;2024-01-06T14:09:27;5.60;99.90
2647;DHT22;1333;50.958;6.770;2024-01-06T14:11:53;5.60;99.90
2647;DHT22;1333;50.958;6.770;2024-01-06T14:14:20;5.60;99.90
2647;DHT22;1333;50.958;6.770;2024-01-06T14:16:45;5.60;99.90
2647;DHT22;1333;50.958;6.770;2024-01-06T14:19:12;5.50;99.90
2647;DHT22;1333;50.958;6.770;2024-01-06T14:21:37;5.50;99.90
2647;DHT22;1333;50.958;6.770;2024-01-06T14:24:04;5.50;99.90
2647;DHT22;1333;50.958;6.770;2024-01-06T14:26:31;5.50;99.90
2647;DHT22;1333;50.958;6.770;2024-01-06T14:28:57;5.40;99.90
2647;DHT22;1333;50.958;6.770;2024-01-06T14:31:24;5.40;99.90
2647;DHT22;1333;50.958;6.770;2024-01-06T14:33:49;5.40;99.90
2647;DHT22;1333;50.958;6.770;2024-01-06T14:36:15;5.50;99.90
2647;DHT22;1333;50.958;6.770;2024-01-06T14:38:40;5.40;99.90
2647;DHT22;1333;50.958;6.770;2024-01-06T14:41:06;5.40;99.90
2647;DHT22;1333;50.958;6.770;2024-01-06T14:43:31;5.40;99.90
2647;DHT22;1333;50.958;6.770;2024-01-06T14:45:57;5.40;99.90
2647;DHT22;1333;50.958;6.770;2024-01-06T14:48:22;5.40;99.90
2647;DHT22;1333;50.958;6.770;2024-01-06T14:50:48;5.30;99.90
2647;DHT22;1333;50.958;6.770;2024-01-06T14:53:14;5.30;99.90
2647;DHT22;1333;50.958;6.770;2024-01-06T14:55:40;5.30;99.90
2647;DHT22;1333;50.958;6.770;2024-01-06T14:58:05;5.30;99.90
2647;DHT22;1333;50.958;6.770;2024-01-06T15:00:31;5.30;99.90
2647;DHT22;1333;50.958;6.770;2024-01-06T15:02:56;5.30;99.90
2647;DHT22;1333;50.958;6.770;2024-01-06T15:05:23;5.30;99.90
2647;DHT22;1333;50.958;6.770;2024-01-06T15:07:48;5.30;99.90
2647;DHT22;1333;50.958;6.770;2024-01-06T15:10:14;5.30;99.90
2647;DHT22;1333;50.958;6.770;2024-01-06T15:12:41;5.20;99.90
2647;DHT22;1333;50.958;6.770;2024-01-06T15:15:07;5.20;99.90
2647;DHT22;1333;50.958;6.770;2024-01-06T15:17:34;5.20;99.90
2647;DHT22;1333;50.958;6.770;2024-01-06T15:19:59;5.20;99.90
2647;DHT22;1333;50.958;6.770;2024-01-06T15:22:25;5.20;99.90
2647;DHT22;1333;50.958;6.770;2024-01-06T15:24:50;5.20;99.90
2647;DHT22;1333;50.958;6.770;2024-01-06T15:27:16;5.20;99.90
2647;DHT22;1333;50.958;6.770;2024-01-06T15:29:42;5.20;99.90
2647;DHT22;1333;50.958;6.770;2024-01-06T15:32:07;5.20;99.90
2647;DHT22;1333;50.958;6.770;2024-01-06T15:34:34;5.20;99.90
2647;DHT22;1333;50.958;6.770;2024-01-06T15:36:59;5.10;99.90
2647;DHT22;1333;50.958;6.770;2024-01-06T15:39:25;5.20;99.90
2647;DHT22;1333;50.958;6.770;2024-01-06T15:41:51;5.10;99.90
2647;DHT22;1333;50.958;6.770;2024-01-06T15:44:19;5.10;99.90
2647;DHT22;1333;50.958;6.770;2024-01-06T15:46:44;5.10;99.90
2647;DHT22;1333;50.958;6.770;2024-01-06T15:49:11;5.00;99.90
2647;DHT22;1333;50.958;6.770;2024-01-06T15:51:36;5.10;99.90
2647;DHT22;1333;50.958;6.770;2024-01-06T15:54:02;5.00;99.90
2647;DHT22;1333;50.958;6.770;2024-01-06T15:56:27;5.00;99.90
2647;DHT22;1333;50.958;6.770;2024-01-06T15:58:53;5.00;99.90
2647;DHT22;1333;50.958;6.770;2024-01-06T16:01:20;4.90;99.90
2647;DHT22;1333;50.958;6.770;2024-01-06T16:03:45;4.90;99.90
2647;DHT22;1333;50.958;6.770;2024-01-06T16:06:11;4.80;99.90
2647;DHT22;1333;50.958;6.770;2024-01-06T16:08:37;4.80;99.90
2647;DHT22;1333;50.958;6.770;2024-01-06T16:11:02;4.80;99.90
2647;DHT22;1333;50.958;6.770;2024-01-06T16:13:28;4.80;99.90
2647;DHT22;1333;50.958;6.770;2024-01-06T16:15:54;4.70;99.90
2647;DHT22;1333;50.958;6.770;2024-01-06T16:18:19;4.70;99.90
2647;DHT22;1333;50.958;6.770;2024-01-06T16:20:46;4.70;99.90
2647;DHT22;1333;50.958;6.770;2024-01-06T16:23:12;4.60;99.90
2647;DHT22;1333;50.958;6.770;2024-01-06T16:25:41;4.60;99.90
2647;DHT22;1333;50.958;6.770;2024-01-06T16:28:06;4.70;99.90
2647;DHT22;1333;50.958;6.770;2024-01-06T16:30:39;4.60;99.90